createdAt,value
2022-09-05T00:04:24.066Z,9.57
2022-09-05T00:09:39.103Z,16.50
2022-09-05T00:15:16.189Z,15.48
2022-09-05T00:24:26.335Z,14.10
2022-09-05T00:26:06.663Z,21.60
2022-09-05T00:31:53.882Z,12.30
2022-09-05T00:36:58.547Z,12.30
2022-09-05T00:42:08.322Z,7.50
2022-09-05T00:47:23.346Z,16.70
2022-09-05T00:52:42.480Z,23.10
2022-09-05T00:58:11.238Z,22.33
2022-09-05T01:03:28.714Z,33.30
2022-09-05T01:09:08.517Z,21.35
2022-09-05T01:14:38.749Z,20.98
2022-09-05T01:20:20.548Z,16.20
2022-09-05T01:25:54.742Z,21.60
2022-09-05T01:31:18.413Z,23.48
2022-09-05T01:36:52.918Z,20.63
2022-09-05T01:42:20.068Z,11.07
2022-09-05T01:47:43.191Z,17.27
2022-09-05T01:53:10.098Z,15.00
2022-09-05T01:58:24.513Z,19.92
2022-09-05T02:03:50.263Z,17.17
2022-09-05T02:09:18.974Z,25.67
2022-09-05T02:14:34.472Z,32.23
2022-09-05T02:19:52.583Z,23.60
2022-09-05T02:26:00.363Z,20.50
2022-09-05T02:30:34.924Z,19.85
2022-09-05T02:36:05.080Z,24.38
2022-09-05T02:45:03.343Z,13.15
2022-09-05T02:47:12.971Z,18.50
2022-09-05T02:57:30.118Z,9.25
2022-09-05T02:58:05.360Z,10.05
2022-09-05T03:03:19.431Z,9.35
2022-09-05T03:08:24.727Z,8.90
2022-09-05T03:13:54.051Z,15.18
2022-09-05T03:19:21.684Z,25.63
2022-09-05T03:24:35.689Z,22.38
2022-09-05T03:30:00.306Z,28.50
2022-09-05T03:35:27.062Z,20.40
2022-09-05T03:40:42.115Z,13.32
2022-09-05T03:46:02.723Z,19.33
2022-09-05T03:57:04.529Z,32.55
2022-09-05T03:57:12.922Z,44.78
2022-09-05T04:04:37.963Z,30.40
2022-09-05T04:08:17.304Z,32.78
2022-09-05T04:13:34.241Z,18.52
2022-09-05T04:19:07.350Z,20.42
2022-09-05T04:24:17.314Z,20.70
2022-09-05T04:29:31.304Z,27.08
2022-09-05T04:35:02.078Z,25.08
2022-09-05T04:40:34.129Z,19.85
2022-09-05T04:45:46.194Z,31.92
2022-09-05T04:51:11.549Z,26.58
2022-09-05T04:56:27.308Z,38.40
2022-09-05T05:06:02.609Z,20.10
2022-09-05T05:07:26.531Z,21.02
2022-09-05T05:17:54.907Z,33.67
2022-09-05T05:18:49.230Z,24.63
2022-09-05T05:23:58.244Z,18.25
2022-09-05T05:29:03.283Z,16.90
2022-09-05T05:34:24.103Z,23.38
2022-09-05T05:39:30.183Z,34.75
2022-09-05T05:44:35.103Z,14.27
2022-09-05T05:50:01.221Z,30.77
2022-09-05T05:55:50.715Z,28.55
2022-09-05T06:00:34.626Z,17.23
2022-09-05T06:05:56.189Z,23.45
2022-09-05T06:14:48.472Z,19.13
2022-09-05T06:16:52.703Z,23.30
2022-09-05T06:22:11.120Z,31.65
2022-09-05T06:28:17.378Z,15.82
2022-09-05T06:33:51.585Z,11.77
2022-09-05T06:39:14.116Z,20.60
2022-09-05T06:44:40.997Z,22.20
2022-09-05T06:50:24.380Z,24.00
2022-09-05T06:55:58.892Z,22.42
2022-09-05T07:01:02.237Z,18.23
2022-09-05T07:06:19.717Z,25.42
2022-09-05T07:11:25.623Z,30.20
2022-09-05T07:16:54.459Z,21.73
2022-09-05T07:22:45.956Z,19.17
2022-09-05T07:28:26.507Z,20.77
2022-09-05T07:33:04.877Z,24.60
2022-09-05T07:38:18.224Z,20.30
2022-09-05T07:43:36.071Z,21.50
2022-09-05T07:49:02.975Z,19.05
2022-09-05T07:56:48.887Z,28.45
2022-09-05T07:59:50.683Z,16.95
2022-09-05T08:05:02.139Z,17.98
2022-09-05T08:10:10.251Z,19.75
2022-09-05T08:15:22.874Z,16.10
2022-09-05T08:20:31.722Z,13.23
2022-09-05T08:25:57.939Z,15.50
2022-09-05T08:31:07.134Z,10.95
2022-09-05T08:36:15.272Z,12.55
2022-09-05T08:41:49.738Z,11.27
2022-09-05T08:46:56.389Z,8.85
2022-09-05T08:52:12.938Z,11.68
2022-09-05T08:57:39.861Z,7.05
2022-09-05T09:03:04.762Z,6.80
2022-09-05T09:08:50.012Z,7.72
2022-09-05T09:14:30.761Z,6.72
2022-09-05T09:20:14.939Z,8.68
2022-09-05T09:25:42.739Z,8.30
2022-09-05T09:30:57.449Z,7.72
2022-09-05T09:36:30.381Z,8.52
2022-09-05T09:42:15.004Z,8.90
2022-09-05T09:48:00.930Z,4.35
2022-09-05T09:53:13.393Z,8.50
2022-09-05T09:58:36.818Z,9.63
2022-09-05T10:10:36.376Z,3.75
2022-09-05T10:10:58.215Z,11.82
2022-09-05T10:16:22.259Z,6.47
2022-09-05T10:28:09.094Z,6.45
2022-09-05T10:35:14.386Z,5.18
2022-09-05T10:45:38.427Z,4.03
2022-09-05T10:58:05.246Z,9.48
2022-09-05T11:03:34.420Z,7.32
2022-09-05T11:26:38.200Z,7.40
2022-09-05T11:40:05.509Z,4.50
2022-09-05T11:44:11.840Z,1.60
2022-09-05T11:49:59.845Z,2.00
2022-09-05T11:55:43.187Z,2.90
2022-09-05T12:01:41.876Z,4.93
2022-09-05T12:07:31.501Z,0.98
2022-09-05T12:12:42.010Z,3.85
2022-09-05T12:18:24.113Z,2.45
2022-09-05T12:24:00.033Z,1.23
2022-09-05T12:29:33.601Z,1.90
2022-09-05T12:41:39.146Z,1.48
2022-09-05T12:46:24.352Z,10.05
2022-09-05T12:51:46.896Z,3.42
2022-09-05T12:59:15.050Z,2.80
2022-09-05T13:03:28.029Z,1.42
2022-09-05T13:08:47.350Z,4.03
2022-09-05T13:14:56.313Z,1.50
2022-09-05T13:19:47.539Z,5.05
2022-09-05T13:25:07.395Z,2.42
2022-09-05T13:38:11.251Z,2.53
2022-09-05T13:54:16.438Z,3.78
2022-09-05T14:06:48.446Z,1.55
2022-09-05T14:12:44.454Z,1.08
2022-09-05T14:18:24.153Z,9.32
2022-09-05T14:24:03.162Z,8.23
2022-09-05T14:29:17.902Z,8.73
2022-09-05T14:37:50.298Z,8.77
2022-09-05T14:40:55.340Z,10.98
2022-09-05T14:46:34.561Z,11.75
2022-09-05T14:51:46.955Z,8.45
2022-09-05T14:57:41.358Z,4.50
2022-09-05T15:02:55.257Z,5.25
2022-09-05T15:07:46.673Z,6.38
2022-09-05T15:13:02.623Z,2.97
2022-09-05T15:18:11.599Z,3.72
2022-09-05T15:23:19.642Z,7.05
2022-09-05T15:28:51.323Z,6.47
2022-09-05T15:34:26.637Z,7.18
2022-09-05T15:39:32.205Z,5.80
2022-09-05T15:44:53.103Z,8.65
2022-09-05T15:50:07.938Z,5.55
2022-09-05T15:55:26.915Z,3.25
2022-09-05T16:00:41.278Z,5.18
2022-09-05T16:10:33.859Z,9.07
2022-09-05T16:23:11.975Z,3.65
2022-09-05T16:23:32.678Z,4.97
2022-09-05T16:28:43.257Z,7.03
2022-09-05T16:33:51.039Z,8.85
2022-09-05T16:39:10.970Z,5.72
2022-09-05T16:44:29.115Z,12.40
2022-09-05T16:49:44.986Z,8.25
2022-09-05T16:55:46.660Z,6.97
2022-09-05T17:01:00.083Z,6.43
2022-09-05T17:06:45.881Z,8.63
2022-09-05T17:12:06.804Z,3.80
2022-09-05T17:18:20.323Z,6.75
2022-09-05T17:29:25.142Z,3.25
2022-09-05T17:35:38.506Z,4.45
2022-09-05T17:41:25.756Z,8.45
2022-09-05T17:46:37.535Z,7.88
2022-09-05T17:51:53.914Z,9.90
2022-09-05T17:56:56.609Z,3.63
2022-09-05T18:02:03.630Z,9.13
2022-09-05T18:07:26.003Z,6.55
2022-09-05T18:13:30.880Z,7.93
2022-09-05T18:18:08.732Z,6.27
2022-09-05T18:23:43.690Z,4.15
2022-09-05T18:29:00.829Z,3.92
2022-09-05T18:34:21.320Z,7.97
2022-09-05T18:39:26.882Z,4.30
2022-09-05T18:44:35.784Z,4.13
2022-09-05T18:50:23.845Z,2.00
2022-09-05T18:55:30.116Z,4.25
2022-09-05T19:00:46.604Z,6.43
2022-09-05T19:06:35.966Z,5.32
2022-09-05T19:11:53.246Z,8.18
2022-09-05T19:17:15.145Z,13.70
2022-09-05T19:23:09.315Z,7.45
2022-09-05T19:29:17.680Z,9.55
2022-09-05T19:37:13.090Z,7.05
2022-09-05T19:40:38.775Z,10.27
2022-09-05T19:47:51.217Z,9.27
2022-09-05T19:50:01.307Z,12.25
2022-09-05T19:55:18.217Z,7.65
2022-09-05T20:00:26.039Z,6.13
2022-09-05T20:05:28.937Z,2.88
2022-09-05T20:10:33.719Z,6.40
2022-09-05T20:15:37.352Z,3.60
2022-09-05T20:20:52.227Z,7.90
2022-09-05T20:25:56.419Z,2.42
2022-09-05T20:31:02.019Z,4.25
2022-09-05T20:42:40.082Z,8.25
2022-09-05T20:43:29.713Z,5.75
2022-09-05T20:49:43.535Z,3.40
2022-09-05T20:54:26.711Z,4.78
2022-09-05T20:58:24.687Z,6.05
2022-09-05T21:03:45.365Z,5.13
2022-09-05T21:08:52.539Z,6.88
2022-09-05T21:13:59.787Z,6.88
2022-09-05T21:19:02.559Z,9.45
2022-09-05T21:24:18.156Z,6.63
2022-09-05T21:29:32.320Z,8.23
2022-09-05T21:34:45.359Z,6.68
2022-09-05T21:39:59.869Z,3.80
2022-09-05T21:47:41.945Z,5.57
2022-09-05T21:50:31.385Z,6.85
2022-09-05T21:59:25.343Z,5.50
2022-09-05T22:00:57.694Z,8.45
2022-09-05T22:06:00.477Z,6.68
2022-09-05T22:11:12.945Z,2.40
2022-09-05T22:16:15.794Z,4.22
2022-09-05T22:21:33.459Z,3.05
2022-09-05T22:27:12.478Z,1.35
2022-09-05T22:32:09.003Z,2.78
2022-09-05T22:37:14.363Z,4.40
2022-09-05T22:42:18.000Z,4.97
2022-09-05T22:47:30.280Z,2.85
2022-09-05T22:52:33.682Z,7.78
2022-09-05T22:57:38.020Z,5.07
2022-09-05T23:02:41.474Z,3.40
2022-09-05T23:07:43.869Z,7.50
2022-09-05T23:12:46.364Z,3.05
2022-09-05T23:17:56.382Z,3.70
2022-09-05T23:23:03.627Z,4.95
2022-09-05T23:28:07.652Z,6.72
2022-09-05T23:33:10.941Z,4.05
2022-09-05T23:38:14.342Z,4.40
2022-09-05T23:43:19.574Z,3.72
2022-09-05T23:48:24.133Z,10.20
2022-09-05T23:53:28.247Z,11.25
2022-09-05T23:58:31.623Z,7.60
